CheckWX is a tool to help pilots better visualize weather data.  It is not intended as a substitute for an official pre-flight weather briefing.

06:55:37 UTC

VVCI TAF
Cat Bi International Airport
Haiphong, Vietnam
TAF VVCI 190500Z 1906/2006 13008KT 8000 SCT017 TEMPO 1906/1908 19018KT 4000 TSRA SCT013 FEW027CB

Jun-19@
06:00 UTC

Jun-19 @ 06:00 UTC

Jun-20@
06:00 UTC

Jun-20 @ 06:00 UTC

TAF VVCI 190500Z 1906/2006 13008KT 8000 SCT017
Wind
  • 130° at 8 KTS
Cloud Levels
  • Scattered at 1,700' AGL

Jun-19@
06:00 UTC

Jun-19 @ 06:00 UTC

Jun-19@
08:00 UTC

Jun-19 @ 08:00 UTC

TEMPO 1906/1908 19018KT 4000 TSRA SCT013 FEW027CB

Temporary

Temporary Changes expected for less than half the time period

Wind
  • 190° at 18 KTS
Conditions
Thunderstorm, Rain
Cloud Levels
  • Scattered at 1,300' AGL
  • Few at 2,700' AGL